Time;durP1;ratioP1;P1;durP2;ratioP2;P2;SDS_P1;SDS_P2;PMS_P1;PMS_P2;Temp;Humidity;BMP_temperature;BMP_pressure;BME280_temperature;BME280_humidity;BME280_pressure;Samples;Min_cycle;Max_cycle;Signal;HPM_P1;HPM_P2
2022/07/15 00:01:07;;;;;;;3.30;2.47;;;17.00;99.90;;;;;;5030266;28;20592;-40
2022/07/15 00:03:32;;;;;;;3.07;2.40;;;17.00;99.90;;;;;;5030278;28;20186;-40
2022/07/15 00:05:58;;;;;;;4.70;2.70;;;16.90;99.90;;;;;;5029888;28;20858;-40
2022/07/15 00:08:24;;;;;;;4.17;3.13;;;16.90;99.90;;;;;;5029493;28;20190;-41
2022/07/15 00:10:50;;;;;;;4.37;2.63;;;16.90;99.90;;;;;;5028819;28;20190;-40
2022/07/15 00:13:15;;;;;;;3.90;3.00;;;16.90;99.90;;;;;;5029886;28;20321;-40
2022/07/15 00:15:41;;;;;;;3.77;2.80;;;16.80;99.90;;;;;;5030089;28;20216;-41
2022/07/15 00:18:07;;;;;;;3.63;2.60;;;16.90;99.90;;;;;;5028173;28;20206;-41
2022/07/15 00:20:35;;;;;;;5.17;2.90;;;16.90;99.90;;;;;;5029841;28;20193;-40
2022/07/15 00:23:03;;;;;;;5.57;2.60;;;16.90;99.90;;;;;;5056833;28;20190;-40
2022/07/15 00:25:29;;;;;;;6.13;3.10;;;16.80;99.90;;;;;;5030142;28;20421;-43
2022/07/15 00:28:00;;;;;;;4.20;2.90;;;16.90;99.90;;;;;;5029127;28;20425;-40
2022/07/15 00:30:44;;;;;;;5.33;2.80;;;16.80;99.90;;;;;;5029897;28;20453;-40
2022/07/15 00:33:10;;;;;;;4.80;3.53;;;16.80;99.90;;;;;;5038532;28;20439;-40
2022/07/15 00:35:37;;;;;;;3.50;2.50;;;16.70;99.90;;;;;;5049726;28;20527;-41
2022/07/15 00:38:04;;;;;;;5.60;3.37;;;16.70;99.90;;;;;;5047632;28;20448;-40
2022/07/15 00:40:30;;;;;;;5.13;3.23;;;16.80;99.90;;;;;;5049605;28;20417;-40
2022/07/15 00:42:56;;;;;;;3.73;3.17;;;16.70;99.90;;;;;;5049738;28;20519;-40
2022/07/15 00:45:24;;;;;;;3.87;3.27;;;16.70;99.90;;;;;;5046512;28;20253;-41
2022/07/15 00:47:55;;;;;;;5.23;3.00;;;16.70;99.90;;;;;;5029008;28;20433;-41
2022/07/15 00:50:22;;;;;;;4.10;3.17;;;16.60;99.90;;;;;;5031131;28;20429;-40
2022/07/15 00:53:18;;;;;;;6.20;2.93;;;16.60;99.90;;;;;;5038731;28;20432;-40
2022/07/15 00:55:45;;;;;;;7.17;3.50;;;16.60;99.90;;;;;;5037347;28;20435;-41
2022/07/15 00:58:17;;;;;;;6.07;2.63;;;16.60;99.90;;;;;;5048473;28;20464;-41
2022/07/15 01:00:46;;;;;;;6.40;2.80;;;16.60;99.90;;;;;;5049708;28;20486;-40
2022/07/15 01:03:15;;;;;;;4.03;3.20;;;16.60;99.90;;;;;;5049415;28;20451;-40
2022/07/15 01:05:41;;;;;;;3.30;2.67;;;16.60;99.90;;;;;;5049415;28;20442;-40
2022/07/15 01:08:08;;;;;;;3.50;2.90;;;16.60;99.90;;;;;;5049407;28;20781;-40
2022/07/15 01:10:35;;;;;;;8.70;3.13;;;16.60;99.90;;;;;;5052964;28;20420;-40
2022/07/15 01:13:02;;;;;;;6.87;2.93;;;16.60;99.90;;;;;;5053184;28;20450;-40
2022/07/15 01:15:31;;;;;;;5.70;3.00;;;16.60;99.90;;;;;;5053100;28;20411;-40
2022/07/15 01:17:58;;;;;;;5.33;3.17;;;16.60;99.90;;;;;;5051611;28;20452;-41
2022/07/15 01:20:24;;;;;;;7.33;2.70;;;16.50;99.90;;;;;;5052913;28;20431;-41
2022/07/15 01:22:49;;;;;;;6.87;2.90;;;16.60;99.90;;;;;;5060962;28;20437;-40
2022/07/15 01:25:15;;;;;;;8.13;3.10;;;16.50;99.90;;;;;;5032694;28;20222;-40
2022/07/15 01:27:41;;;;;;;5.57;2.90;;;16.50;99.90;;;;;;5032406;28;20584;-40
2022/07/15 01:30:08;;;;;;;5.90;3.13;;;16.50;99.90;;;;;;5032963;28;20542;-40
2022/07/15 01:32:34;;;;;;;4.93;2.83;;;16.50;99.90;;;;;;5032971;28;20420;-40
2022/07/15 01:35:00;;;;;;;5.07;2.90;;;16.50;99.90;;;;;;5032856;28;20426;-40
2022/07/15 01:37:26;;;;;;;4.73;2.80;;;16.50;99.90;;;;;;5032080;28;21117;-42
2022/07/15 01:39:52;;;;;;;5.97;2.70;;;16.50;99.90;;;;;;5032733;28;20417;-41
2022/07/15 01:42:18;;;;;;;4.70;2.67;;;16.50;99.90;;;;;;5032737;28;20218;-43
2022/07/15 01:44:43;;;;;;;8.23;2.60;;;16.50;99.90;;;;;;5032801;28;20175;-41
2022/07/15 01:47:10;;;;;;;8.43;3.20;;;16.50;99.90;;;;;;5036284;28;20424;-41
2022/07/15 01:49:35;;;;;;;4.43;2.73;;;16.50;99.90;;;;;;5052438;28;20657;-39
2022/07/15 01:52:02;;;;;;;7.37;3.00;;;16.50;99.90;;;;;;5048240;28;20429;-40
2022/07/15 01:54:30;;;;;;;5.20;2.90;;;16.50;99.90;;;;;;5032326;28;20292;-40
2022/07/15 01:56:56;;;;;;;4.87;2.53;;;16.40;99.90;;;;;;5031935;28;20845;-40
2022/07/15 01:59:24;;;;;;;5.10;3.30;;;16.50;99.90;;;;;;5032258;28;20551;-43
2022/07/15 02:01:51;;;;;;;5.80;2.70;;;16.40;99.90;;;;;;5032086;28;20417;-40
2022/07/15 02:04:17;;;;;;;5.83;2.93;;;16.50;99.90;;;;;;5032406;28;20500;-41
2022/07/15 02:06:43;;;;;;;5.93;2.50;;;16.40;99.90;;;;;;5031225;28;20877;-40
2022/07/15 02:09:08;;;;;;;5.40;2.57;;;16.40;99.90;;;;;;5032286;28;20466;-41
2022/07/15 02:11:34;;;;;;;5.93;2.50;;;16.40;99.90;;;;;;5032079;28;20425;-41
2022/07/15 02:14:01;;;;;;;4.47;2.63;;;16.40;99.90;;;;;;5032304;28;20217;-40
2022/07/15 02:16:29;;;;;;;7.60;3.20;;;16.40;99.90;;;;;;5031909;28;20182;-40
2022/07/15 02:18:55;;;;;;;4.63;3.10;;;16.40;99.90;;;;;;5029920;28;20543;-42
2022/07/15 02:21:21;;;;;;;6.03;2.53;;;16.40;99.90;;;;;;5032187;28;20424;-41
2022/07/15 02:23:47;;;;;;;3.80;2.60;;;16.40;99.90;;;;;;5032203;28;20974;-40
2022/07/15 02:26:13;;;;;;;4.70;2.90;;;16.40;99.90;;;;;;5031873;28;20274;-41
2022/07/15 02:28:39;;;;;;;9.23;3.10;;;16.30;99.90;;;;;;5030074;28;21039;-40
2022/07/15 02:31:05;;;;;;;3.90;2.30;;;16.30;99.90;;;;;;5031699;28;20905;-43
2022/07/15 02:33:31;;;;;;;9.57;3.47;;;16.20;99.90;;;;;;5031766;28;20429;-43
2022/07/15 02:35:57;;;;;;;5.13;2.40;;;16.20;99.90;;;;;;5031319;28;20421;-40
2022/07/15 02:38:23;;;;;;;5.57;3.10;;;16.10;99.90;;;;;;5031096;28;21076;-40
2022/07/15 02:40:49;;;;;;;6.33;2.60;;;16.10;99.90;;;;;;5031783;28;20186;-41
2022/07/15 02:43:15;;;;;;;7.40;2.90;;;16.00;99.90;;;;;;5031610;28;20522;-40
2022/07/15 02:45:41;;;;;;;6.60;2.70;;;16.00;99.90;;;;;;5031583;28;20904;-41
2022/07/15 02:48:07;;;;;;;4.70;3.00;;;15.90;99.90;;;;;;5043037;28;20193;-41
2022/07/15 02:50:33;;;;;;;5.00;2.97;;;15.90;99.90;;;;;;5051037;28;20494;-41
2022/07/15 02:53:00;;;;;;;5.70;3.10;;;15.90;99.90;;;;;;5039221;28;20420;-40
2022/07/15 02:55:25;;;;;;;9.20;2.30;;;15.80;99.90;;;;;;5031251;28;20421;-40
2022/07/15 02:57:51;;;;;;;4.60;2.33;;;15.70;99.90;;;;;;5030511;28;20503;-41
2022/07/15 03:00:17;;;;;;;6.17;2.77;;;15.70;99.90;;;;;;5031226;28;20197;-40
2022/07/15 03:02:44;;;;;;;4.30;2.47;;;15.60;99.90;;;;;;5031264;28;20182;-40
2022/07/15 03:05:11;;;;;;;3.90;2.70;;;15.60;99.90;;;;;;5030852;28;20413;-40
2022/07/15 03:07:38;;;;;;;5.50;2.60;;;15.60;99.90;;;;;;5030284;28;20472;-42
2022/07/15 03:10:05;;;;;;;4.27;3.17;;;15.50;99.90;;;;;;5031103;28;20425;-40
2022/07/15 03:12:31;;;;;;;6.90;3.10;;;15.40;99.90;;;;;;5029603;28;20425;-40
2022/07/15 03:14:58;;;;;;;6.03;2.90;;;15.30;99.90;;;;;;5031134;28;20765;-40
2022/07/15 03:17:24;;;;;;;5.57;3.20;;;15.30;99.90;;;;;;5030232;28;20429;-39
2022/07/15 03:19:49;;;;;;;11.27;3.83;;;15.30;99.90;;;;;;5029897;28;20816;-40
2022/07/15 03:22:15;;;;;;;8.40;3.70;;;15.20;99.90;;;;;;5030772;28;20220;-42
2022/07/15 03:24:41;;;;;;;5.90;3.40;;;15.20;99.90;;;;;;5030856;28;20230;-40
2022/07/15 03:27:08;;;;;;;6.70;3.27;;;15.20;99.90;;;;;;5030149;28;20563;-40
2022/07/15 03:29:34;;;;;;;8.07;3.27;;;15.20;99.90;;;;;;5030548;28;20475;-39
2022/07/15 03:32:00;;;;;;;8.27;3.50;;;15.10;99.90;;;;;;5029872;28;20425;-40
2022/07/15 03:34:26;;;;;;;3.60;2.87;;;15.00;99.90;;;;;;5029048;28;20429;-41
2022/07/15 03:36:53;;;;;;;4.23;3.83;;;14.90;99.90;;;;;;5030065;28;21003;-43
2022/07/15 03:39:19;;;;;;;10.17;4.03;;;14.90;99.90;;;;;;5030330;28;20256;-42
2022/07/15 03:41:46;;;;;;;7.40;4.07;;;14.80;99.90;;;;;;5030521;28;21007;-40
2022/07/15 03:44:13;;;;;;;6.53;3.70;;;14.80;99.90;;;;;;5030407;28;20194;-42
2022/07/15 03:46:39;;;;;;;6.10;3.60;;;14.70;99.90;;;;;;5030008;28;20418;-39
2022/07/15 03:49:05;;;;;;;5.20;3.30;;;14.70;99.90;;;;;;5050240;28;21086;-40
2022/07/15 03:51:32;;;;;;;6.33;3.70;;;14.60;99.90;;;;;;5050039;28;20427;-40
2022/07/15 03:54:02;;;;;;;7.17;3.20;;;14.60;99.90;;;;;;5030316;28;20454;-41
2022/07/15 03:56:29;;;;;;;6.43;3.30;;;14.50;99.90;;;;;;5030179;28;20447;-40
2022/07/15 03:58:55;;;;;;;6.70;3.10;;;14.50;99.90;;;;;;5029504;28;20461;-40
2022/07/15 04:01:21;;;;;;;6.07;3.10;;;14.50;99.90;;;;;;5030030;28;20927;-42
2022/07/15 04:03:48;;;;;;;6.17;3.00;;;14.50;99.90;;;;;;5030253;28;20411;-41
2022/07/15 04:06:15;;;;;;;5.37;3.27;;;14.50;99.90;;;;;;5030074;28;20895;-40
2022/07/15 04:08:41;;;;;;;4.70;3.00;;;14.50;99.90;;;;;;5029568;28;20433;-41
2022/07/15 04:11:06;;;;;;;5.90;3.77;;;14.60;99.90;;;;;;5028783;28;20439;-41
2022/07/15 04:13:32;;;;;;;4.83;3.30;;;14.60;99.90;;;;;;5028856;28;20416;-40
2022/07/15 04:15:58;;;;;;;6.60;3.47;;;14.60;99.90;;;;;;5029706;28;20265;-41
2022/07/15 04:18:24;;;;;;;10.93;3.80;;;14.60;99.90;;;;;;5028482;28;20271;-40
2022/07/15 04:20:49;;;;;;;4.73;3.50;;;14.50;99.90;;;;;;5031349;28;20269;-40
2022/07/15 04:23:15;;;;;;;6.40;3.30;;;14.60;99.90;;;;;;5054985;28;20192;-42
2022/07/15 04:25:42;;;;;;;5.10;4.00;;;14.60;99.90;;;;;;5029747;28;20225;-42
2022/07/15 04:28:07;;;;;;;7.30;3.90;;;14.60;99.90;;;;;;5029310;28;20429;-40
2022/07/15 04:30:33;;;;;;;5.83;3.60;;;14.60;99.90;;;;;;5029561;28;20772;-40
2022/07/15 04:32:59;;;;;;;5.50;3.30;;;14.60;99.90;;;;;;5029913;28;20544;-40
2022/07/15 04:35:26;;;;;;;6.77;3.50;;;14.60;99.90;;;;;;5029767;28;20425;-40
2022/07/15 04:37:52;;;;;;;6.87;3.83;;;14.70;99.90;;;;;;5029387;28;20209;-40
2022/07/15 04:40:18;;;;;;;7.53;3.13;;;14.70;99.90;;;;;;5029735;28;20425;-40
2022/07/15 04:42:43;;;;;;;7.40;3.87;;;14.70;99.90;;;;;;5031575;28;20189;-41
2022/07/15 04:45:09;;;;;;;7.30;3.77;;;14.80;99.90;;;;;;5040057;28;20460;-40
2022/07/15 04:47:35;;;;;;;6.57;3.20;;;14.80;99.90;;;;;;5047666;28;20231;-39
2022/07/15 04:52:47;;;;;;;4.13;3.07;;;14.80;99.90;;;;;;5048036;28;20190;-41
2022/07/15 04:55:13;;;;;;;6.40;3.83;;;14.80;99.90;;;;;;5049780;28;20786;-40
2022/07/15 04:57:39;;;;;;;6.13;3.33;;;14.90;99.90;;;;;;5041896;28;20453;-43
2022/07/15 05:00:06;;;;;;;8.53;3.40;;;15.00;99.90;;;;;;5033586;28;20440;-40
2022/07/15 05:02:31;;;;;;;5.33;3.40;;;14.90;99.90;;;;;;5033529;28;20232;-40
2022/07/15 05:04:57;;;;;;;6.77;3.60;;;15.00;99.90;;;;;;5033396;28;20417;-40
2022/07/15 05:07:23;;;;;;;5.40;3.43;;;15.00;99.90;;;;;;5032680;28;20277;-44
2022/07/15 05:09:49;;;;;;;9.17;5.43;;;15.10;99.90;;;;;;5033326;28;20451;-41
2022/07/15 05:12:15;;;;;;;4.97;3.27;;;15.20;99.90;;;;;;5035573;28;20194;-41
2022/07/15 05:14:40;;;;;;;12.33;3.67;;;15.20;99.90;;;;;;5052807;28;20428;-40
2022/07/15 05:17:07;;;;;;;5.30;2.80;;;15.20;99.90;;;;;;5042023;28;20197;-40
2022/07/15 05:19:33;;;;;;;5.90;2.90;;;15.30;99.90;;;;;;5031615;28;20487;-40
2022/07/15 05:21:59;;;;;;;6.13;3.00;;;15.40;99.90;;;;;;5053839;28;20452;-40
2022/07/15 05:24:25;;;;;;;5.90;3.97;;;15.50;99.90;;;;;;5038801;28;20503;-40
2022/07/15 05:26:51;;;;;;;11.20;4.03;;;15.50;99.90;;;;;;5032143;28;20451;-40
2022/07/15 05:29:17;;;;;;;9.60;4.00;;;15.60;99.90;;;;;;5033077;28;20226;-42
2022/07/15 05:31:43;;;;;;;11.63;4.77;;;15.60;99.90;;;;;;5038022;28;20177;-43
2022/07/15 05:34:09;;;;;;;7.30;3.70;;;15.50;99.90;;;;;;5046059;28;20185;-41
2022/07/15 05:36:35;;;;;;;10.43;4.20;;;15.50;99.90;;;;;;5040770;28;20190;-41
2022/07/15 05:39:01;;;;;;;6.97;3.83;;;15.60;99.90;;;;;;5038040;28;20959;-42
2022/07/15 05:41:27;;;;;;;14.37;3.77;;;15.70;99.90;;;;;;5042800;28;20440;-44
2022/07/15 05:43:53;;;;;;;10.00;4.17;;;15.70;99.90;;;;;;5045468;28;20528;-40
2022/07/15 05:46:18;;;;;;;9.23;3.73;;;15.70;99.90;;;;;;5032888;28;20229;-40
2022/07/15 05:48:44;;;;;;;12.67;4.50;;;15.80;99.90;;;;;;5041096;28;20198;-40
2022/07/15 05:51:10;;;;;;;6.60;3.70;;;15.90;99.90;;;;;;5046301;28;20201;-40
2022/07/15 05:53:35;;;;;;;8.63;3.30;;;15.90;99.90;;;;;;5034166;28;20728;-41
2022/07/15 05:56:01;;;;;;;6.53;3.63;;;16.00;99.90;;;;;;5032471;28;20277;-40
2022/07/15 05:58:27;;;;;;;8.63;3.23;;;16.10;99.90;;;;;;5038646;28;20246;-40
2022/07/15 06:00:53;;;;;;;5.60;3.30;;;16.20;99.90;;;;;;5042743;28;20264;-40
2022/07/15 06:03:19;;;;;;;8.87;4.20;;;16.40;99.90;;;;;;5044538;28;20183;-40
2022/07/15 06:05:44;;;;;;;10.13;2.70;;;16.50;99.90;;;;;;5044882;28;20497;-40
2022/07/15 06:08:10;;;;;;;6.37;3.20;;;16.60;99.90;;;;;;5033370;28;20252;-41
2022/07/15 06:10:36;;;;;;;4.63;2.80;;;16.60;99.90;;;;;;5031420;28;20689;-41
2022/07/15 06:13:03;;;;;;;6.20;2.00;;;16.70;99.90;;;;;;5032051;28;20182;-41
2022/07/15 06:15:29;;;;;;;3.60;1.93;;;16.80;99.90;;;;;;5032100;28;20429;-40
2022/07/15 06:17:56;;;;;;;5.60;1.80;;;17.00;99.90;;;;;;5029840;28;20526;-40
2022/07/15 06:20:22;;;;;;;3.80;1.50;;;17.10;99.90;;;;;;5031955;28;20460;-40
2022/07/15 06:22:47;;;;;;;5.67;1.70;;;17.30;99.90;;;;;;5032388;28;20468;-40
2022/07/15 06:25:13;;;;;;;6.03;2.30;;;17.20;99.90;;;;;;5031669;28;20428;-40
2022/07/15 06:27:39;;;;;;;5.03;2.97;;;17.20;99.90;;;;;;5026964;28;20198;-40
2022/07/15 06:30:06;;;;;;;3.77;1.70;;;17.30;99.90;;;;;;5031841;28;20187;-41
2022/07/15 06:32:31;;;;;;;9.80;2.50;;;17.30;99.90;;;;;;5031875;28;20201;-41
2022/07/15 06:34:57;;;;;;;3.30;1.47;;;17.20;99.90;;;;;;5031809;28;20428;-40
2022/07/15 06:37:23;;;;;;;5.60;1.73;;;17.20;99.90;;;;;;5031374;28;20828;-40
2022/07/15 06:39:49;;;;;;;5.10;1.63;;;17.40;99.90;;;;;;5031411;28;20185;-42
2022/07/15 06:42:15;;;;;;;3.43;1.50;;;17.50;99.90;;;;;;5031522;28;20182;-40
2022/07/15 06:44:40;;;;;;;4.07;1.40;;;17.70;99.90;;;;;;5036790;28;20235;-41
2022/07/15 06:47:06;;;;;;;6.47;2.00;;;17.70;99.90;;;;;;5038633;28;20460;-40
2022/07/15 06:49:34;;;;;;;3.13;1.83;;;17.80;99.90;;;;;;5041631;28;20189;-40
2022/07/15 06:52:01;;;;;;;6.30;2.03;;;17.70;99.90;;;;;;5040779;28;20198;-41
2022/07/15 06:54:26;;;;;;;5.90;2.03;;;17.80;99.90;;;;;;5035337;28;20503;-41
2022/07/15 06:56:52;;;;;;;4.87;1.67;;;17.80;99.90;;;;;;5037668;28;20504;-44
2022/07/15 06:59:18;;;;;;;3.70;1.70;;;17.90;99.90;;;;;;5043254;28;20582;-42
2022/07/15 07:01:43;;;;;;;6.70;1.80;;;18.00;99.90;;;;;;5048348;28;20588;-42
2022/07/15 07:04:09;;;;;;;5.77;1.40;;;18.10;99.90;;;;;;5037623;28;20186;-40
2022/07/15 07:06:35;;;;;;;4.83;1.50;;;18.20;99.90;;;;;;5030473;28;20274;-42
2022/07/15 07:09:01;;;;;;;3.63;2.10;;;18.10;99.90;;;;;;5033750;28;20619;-46
2022/07/15 07:11:27;;;;;;;4.17;2.03;;;18.00;99.90;;;;;;5033823;28;20191;-43
2022/07/15 07:13:52;;;;;;;5.33;2.13;;;18.00;99.90;;;;;;5031147;28;20932;-42
2022/07/15 07:16:18;;;;;;;7.70;1.77;;;18.00;99.90;;;;;;5030933;28;20190;-43
2022/07/15 07:18:45;;;;;;;4.40;1.50;;;18.00;99.90;;;;;;5028925;28;20218;-46
2022/07/15 07:21:12;;;;;;;4.50;1.90;;;18.00;99.90;;;;;;5038262;28;20423;-42
2022/07/15 07:23:39;;;;;;;5.37;2.23;;;18.00;99.90;;;;;;5048395;28;20413;-41
2022/07/15 07:26:06;;;;;;;4.33;1.90;;;18.00;99.90;;;;;;5030930;28;20425;-42
2022/07/15 07:28:32;;;;;;;4.73;1.60;;;18.00;99.90;;;;;;5030417;28;20432;-45
2022/07/15 07:30:59;;;;;;;4.17;1.70;;;18.00;99.90;;;;;;5030684;28;20429;-41
2022/07/15 07:33:25;;;;;;;6.47;1.50;;;18.00;99.90;;;;;;5030789;28;20421;-41
2022/07/15 07:35:51;;;;;;;4.10;1.40;;;18.00;99.90;;;;;;5030300;28;21028;-42
2022/07/15 07:38:17;;;;;;;7.20;2.17;;;18.00;99.90;;;;;;5028713;28;20202;-44
2022/07/15 07:40:43;;;;;;;3.37;1.50;;;18.00;99.90;;;;;;5037560;28;20764;-41
2022/07/15 07:43:09;;;;;;;5.13;1.90;;;18.00;99.90;;;;;;5030955;28;21036;-41
2022/07/15 07:45:35;;;;;;;3.37;1.90;;;18.00;99.90;;;;;;5030574;28;20495;-43
2022/07/15 07:48:01;;;;;;;4.70;1.97;;;18.00;99.90;;;;;;5041067;28;20324;-41
2022/07/15 07:50:27;;;;;;;4.90;1.77;;;18.10;99.90;;;;;;5048667;28;20436;-42
2022/07/15 07:52:54;;;;;;;5.80;1.90;;;18.20;99.90;;;;;;5038594;28;20197;-42
2022/07/15 07:55:19;;;;;;;6.20;1.30;;;18.30;99.90;;;;;;5030425;28;20773;-44
2022/07/15 07:57:49;;;;;;;7.10;2.03;;;18.40;99.90;;;;;;5029490;28;20460;-41
2022/07/15 08:00:16;;;;;;;3.77;1.90;;;18.40;99.90;;;;;;5030275;28;20197;-42
2022/07/15 08:02:42;;;;;;;5.27;2.13;;;18.50;99.90;;;;;;5030124;28;20420;-42
2022/07/15 08:05:08;;;;;;;5.30;2.10;;;18.50;99.90;;;;;;5029938;28;20509;-41
2022/07/15 08:07:35;;;;;;;4.87;1.47;;;18.60;99.90;;;;;;5029555;28;20270;-41
2022/07/15 08:10:02;;;;;;;6.23;1.53;;;18.70;99.90;;;;;;5030159;28;20503;-45
2022/07/15 08:12:28;;;;;;;6.10;1.90;;;18.60;99.90;;;;;;5030150;28;20421;-41
2022/07/15 08:14:54;;;;;;;7.00;1.80;;;18.70;99.90;;;;;;5030061;28;20471;-42
2022/07/15 08:17:21;;;;;;;5.03;1.77;;;18.70;99.90;;;;;;5027756;28;20426;-42
2022/07/15 08:19:47;;;;;;;5.53;1.27;;;18.60;99.90;;;;;;5026968;28;21085;-40
2022/07/15 08:22:14;;;;;;;2.20;1.00;;;18.70;99.90;;;;;;5054630;28;20436;-43
2022/07/15 08:24:40;;;;;;;4.33;1.50;;;18.60;99.90;;;;;;5030199;28;20421;-43
2022/07/15 08:27:05;;;;;;;2.83;1.43;;;18.60;99.90;;;;;;5029372;28;20767;-43
2022/07/15 08:29:31;;;;;;;3.77;1.93;;;18.60;99.90;;;;;;5029846;28;20491;-42
2022/07/15 08:31:57;;;;;;;2.93;1.80;;;18.50;99.90;;;;;;5029917;28;20190;-41
2022/07/15 08:34:23;;;;;;;2.57;1.63;;;18.50;99.90;;;;;;5029607;28;20197;-44
2022/07/15 08:36:48;;;;;;;4.40;1.60;;;18.40;99.90;;;;;;5029194;28;20197;-43
2022/07/15 08:39:15;;;;;;;4.40;1.60;;;18.30;99.90;;;;;;5029668;28;20221;-42
2022/07/15 08:41:41;;;;;;;4.87;1.70;;;18.30;99.90;;;;;;5029953;28;21109;-41
2022/07/15 08:44:07;;;;;;;3.93;2.77;;;18.30;99.90;;;;;;5029799;28;20443;-41
2022/07/15 08:46:34;;;;;;;3.53;2.13;;;18.30;99.90;;;;;;5029615;28;20428;-41
2022/07/15 08:49:13;;;;;;;4.70;2.00;;;18.40;99.90;;;;;;5048676;28;20436;-41
2022/07/15 08:51:43;;;;;;;5.00;2.27;;;18.60;99.90;;;;;;5048300;28;20768;-41
2022/07/15 08:54:10;;;;;;;4.30;1.90;;;18.70;99.90;;;;;;5029772;28;20503;-43
2022/07/15 08:56:37;;;;;;;4.60;2.10;;;18.90;99.90;;;;;;5029183;28;20430;-43
2022/07/15 08:59:04;;;;;;;4.93;2.20;;;19.00;99.90;;;;;;5029371;28;20480;-40
2022/07/15 09:01:30;;;;;;;6.63;2.63;;;19.00;99.90;;;;;;5029257;28;20441;-43
2022/07/15 09:03:56;;;;;;;6.10;2.20;;;19.00;99.90;;;;;;5029714;28;20422;-43
2022/07/15 09:06:43;;;;;;;3.80;2.10;;;19.00;99.90;;;;;;5029532;28;20449;-42
2022/07/15 09:09:18;;;;;;;3.27;2.10;;;18.90;99.90;;;;;;5029553;28;20502;-41
2022/07/15 09:11:52;;;;;;;5.73;2.30;;;18.70;99.90;;;;;;5029264;28;21001;-41
2022/07/15 09:14:19;;;;;;;4.03;2.50;;;18.70;99.90;;;;;;5029436;28;20428;-45
2022/07/15 09:16:45;;;;;;;4.30;2.30;;;18.70;99.90;;;;;;5028905;28;20465;-43
2022/07/15 09:19:11;;;;;;;5.57;2.50;;;18.80;99.90;;;;;;5027878;28;20507;-41
2022/07/15 09:21:37;;;;;;;3.50;2.40;;;19.00;99.90;;;;;;5044082;28;20857;-40
2022/07/15 09:24:17;;;;;;;4.93;2.47;;;19.20;99.90;;;;;;5041003;28;20955;-44
2022/07/15 09:26:43;;;;;;;3.70;1.50;;;19.10;99.90;;;;;;5028879;28;20666;-42
2022/07/15 09:35:02;;;;;;;3.30;1.53;;;19.10;99.10;;;;;;5032807;28;20432;-42
2022/07/15 09:37:28;;;;;;;6.83;1.67;;;19.40;98.30;;;;;;5032270;28;20793;-42
2022/07/15 09:39:56;;;;;;;3.10;1.60;;;19.70;98.30;;;;;;5032829;28;20479;-41
2022/07/15 09:42:22;;;;;;;2.90;1.30;;;19.80;97.60;;;;;;5032791;28;20197;-44
2022/07/15 09:44:47;;;;;;;3.00;1.57;;;19.90;99.10;;;;;;5032753;28;20448;-41
2022/07/15 09:47:18;;;;;;;3.43;1.63;;;20.10;99.00;;;;;;5036597;28;20242;-44
2022/07/15 09:49:44;;;;;;;1.40;1.00;;;20.30;98.70;;;;;;5052760;28;21024;-42
2022/07/15 09:52:13;;;;;;;5.30;1.57;;;20.40;98.00;;;;;;5046780;28;20429;-44
2022/07/15 09:54:45;;;;;;;4.07;1.50;;;20.50;97.70;;;;;;5032716;28;20421;-42
2022/07/15 09:57:15;;;;;;;1.63;1.23;;;20.50;97.30;;;;;;5038696;28;20502;-41
2022/07/15 09:59:41;;;;;;;3.63;1.53;;;20.40;97.20;;;;;;5052269;28;20456;-42
2022/07/15 10:02:08;;;;;;;3.83;1.40;;;20.40;97.00;;;;;;5052255;28;20788;-42
2022/07/15 10:04:35;;;;;;;4.40;1.73;;;20.40;97.40;;;;;;5052393;28;20413;-43
2022/07/15 10:07:04;;;;;;;1.70;1.30;;;20.40;97.30;;;;;;5051513;28;20955;-42
2022/07/15 10:09:33;;;;;;;5.77;2.30;;;20.40;97.00;;;;;;5052160;28;20424;-43
2022/07/15 10:12:08;;;;;;;6.03;1.80;;;20.30;97.40;;;;;;5052040;28;20470;-44
2022/07/15 10:14:42;;;;;;;2.43;1.80;;;20.10;97.30;;;;;;5052061;28;20428;-43
2022/07/15 10:17:26;;;;;;;2.93;1.63;;;20.10;97.50;;;;;;5051505;28;20411;-42
2022/07/15 10:20:39;;;;;;;7.83;1.80;;;20.10;98.10;;;;;;5050632;28;20424;-42
2022/07/15 10:23:23;;;;;;;4.80;1.60;;;20.10;97.80;;;;;;5054955;28;20822;-44
2022/07/15 10:26:12;;;;;;;3.90;1.50;;;20.10;97.50;;;;;;5029251;28;20425;-42
2022/07/15 10:29:04;;;;;;;1.83;1.43;;;20.10;97.40;;;;;;5026105;28;20441;-42
2022/07/15 10:31:32;;;;;;;3.70;1.10;;;20.30;97.70;;;;;;5041018;28;20778;-42
2022/07/15 10:34:06;;;;;;;1.17;1.07;;;20.40;97.40;;;;;;5051725;28;20432;-47
2022/07/15 10:36:52;;;;;;;6.03;2.13;;;20.40;96.80;;;;;;5051220;28;20419;-41
2022/07/15 10:39:24;;;;;;;3.90;1.50;;;20.40;96.80;;;;;;5051300;28;20460;-41
2022/07/15 10:42:03;;;;;;;3.83;1.50;;;20.30;96.20;;;;;;5051296;28;20776;-42
2022/07/15 10:44:47;;;;;;;2.60;1.40;;;20.40;96.90;;;;;;5051571;28;20436;-42
2022/07/15 10:47:13;;;;;;;3.10;1.77;;;20.70;96.50;;;;;;5032647;28;20798;-42
2022/07/15 10:49:43;;;;;;;2.33;1.60;;;20.80;96.00;;;;;;5031095;28;20426;-44
2022/07/15 10:52:10;;;;;;;3.37;2.10;;;20.80;95.50;;;;;;5042838;28;20235;-46
2022/07/15 10:54:36;;;;;;;3.30;1.53;;;20.90;96.20;;;;;;5031593;28;20761;-43
2022/07/15 10:57:02;;;;;;;3.70;1.50;;;20.80;96.10;;;;;;5030750;28;20432;-42
2022/07/15 10:59:35;;;;;;;5.00;1.43;;;20.70;95.10;;;;;;5031298;28;20210;-42
2022/07/15 11:02:02;;;;;;;3.03;1.20;;;20.60;96.00;;;;;;5031282;28;20198;-42
2022/07/15 11:04:30;;;;;;;3.40;1.33;;;20.50;96.00;;;;;;5031249;28;20440;-43
2022/07/15 11:07:07;;;;;;;3.30;1.60;;;20.50;96.20;;;;;;5030500;28;20452;-41
2022/07/15 11:09:47;;;;;;;2.67;1.10;;;20.40;96.00;;;;;;5031149;28;20432;-41
2022/07/15 11:12:15;;;;;;;3.10;1.30;;;20.40;96.90;;;;;;5031089;28;20417;-41
2022/07/15 11:15:00;;;;;;;1.80;1.17;;;20.40;97.10;;;;;;5030716;28;20444;-42
2022/07/15 11:17:29;;;;;;;2.70;1.97;;;20.40;97.00;;;;;;5030554;28;20421;-42
2022/07/15 11:20:08;;;;;;;2.90;1.80;;;20.30;97.10;;;;;;5029422;28;20508;-41
2022/07/15 11:22:35;;;;;;;5.37;1.53;;;20.30;97.10;;;;;;5030791;28;20428;-42
2022/07/15 11:25:03;;;;;;;2.93;1.43;;;20.20;97.10;;;;;;5030775;28;21121;-41
2022/07/15 11:27:30;;;;;;;2.70;1.43;;;20.20;97.10;;;;;;5028794;28;20548;-41
2022/07/15 11:30:02;;;;;;;4.03;1.97;;;20.20;97.30;;;;;;5030817;28;20417;-44
2022/07/15 11:32:30;;;;;;;3.80;1.60;;;20.20;97.80;;;;;;5029389;28;20441;-42
2022/07/15 11:34:58;;;;;;;2.20;1.50;;;20.20;98.20;;;;;;5030717;28;20456;-43
2022/07/15 11:37:28;;;;;;;2.13;1.80;;;20.20;98.80;;;;;;5030006;28;20754;-41
2022/07/15 11:40:10;;;;;;;2.93;1.70;;;20.30;98.40;;;;;;5029138;28;20460;-43
2022/07/15 11:45:36;;;;;;;2.33;1.40;;;20.40;98.10;;;;;;5030439;28;20437;-44
2022/07/15 11:48:06;;;;;;;3.37;1.03;;;20.40;97.60;;;;;;5041122;28;20774;-42
2022/07/15 11:50:33;;;;;;;3.23;1.30;;;20.40;96.60;;;;;;5050495;28;20428;-43
2022/07/15 11:52:59;;;;;;;2.40;1.20;;;20.30;97.00;;;;;;5037897;28;20979;-42
2022/07/15 11:55:25;;;;;;;3.37;1.40;;;20.30;96.80;;;;;;5030168;28;20425;-42
2022/07/15 11:57:54;;;;;;;2.80;1.30;;;20.30;97.20;;;;;;5029732;28;20209;-42
2022/07/15 12:00:29;;;;;;;2.83;1.30;;;20.20;97.00;;;;;;5030148;28;20185;-41
2022/07/15 12:03:06;;;;;;;1.80;1.30;;;20.20;96.90;;;;;;5030199;28;20486;-42
2022/07/15 12:05:32;;;;;;;1.80;1.00;;;20.20;97.10;;;;;;5030024;28;20443;-42
2022/07/15 12:07:58;;;;;;;2.20;1.17;;;20.20;97.10;;;;;;5029632;28;20460;-42
2022/07/15 12:10:34;;;;;;;3.93;1.63;;;20.30;98.30;;;;;;5030094;28;20285;-43
2022/07/15 12:13:01;;;;;;;1.43;0.90;;;20.50;98.40;;;;;;5029899;28;20197;-41
2022/07/15 12:15:35;;;;;;;2.10;1.10;;;20.70;97.50;;;;;;5030082;28;20455;-44
2022/07/15 12:18:01;;;;;;;2.07;1.10;;;20.80;97.00;;;;;;5028047;28;20519;-41
2022/07/15 12:20:28;;;;;;;1.40;0.97;;;21.00;96.60;;;;;;5030064;28;20424;-44
2022/07/15 12:23:11;;;;;;;1.33;1.00;;;21.10;94.40;;;;;;5030276;28;20417;-41
2022/07/15 12:25:37;;;;;;;2.83;1.03;;;21.20;94.50;;;;;;5029599;28;20429;-42
2022/07/15 12:28:03;;;;;;;1.70;0.70;;;21.10;95.40;;;;;;5029432;28;20902;-42
2022/07/15 12:30:37;;;;;;;1.50;1.07;;;21.00;95.10;;;;;;5029935;28;20236;-41
2022/07/15 12:33:19;;;;;;;1.10;0.80;;;20.90;94.90;;;;;;5037514;28;20268;-42
2022/07/15 12:35:46;;;;;;;1.77;0.90;;;20.70;95.20;;;;;;5049724;28;20435;-41
2022/07/15 12:38:29;;;;;;;3.53;1.10;;;20.70;95.00;;;;;;5048941;28;20537;-41
2022/07/15 12:41:05;;;;;;;0.80;0.80;;;20.60;95.30;;;;;;5049662;28;20438;-42
2022/07/15 12:43:56;;;;;;;1.87;0.90;;;20.60;94.80;;;;;;5049766;28;20427;-41
2022/07/15 12:46:56;;;;;;;1.20;0.63;;;20.60;95.00;;;;;;5038252;28;20413;-43
2022/07/15 12:49:52;;;;;;;3.07;1.20;;;20.90;94.60;;;;;;5029911;28;20432;-46
2022/07/15 12:52:24;;;;;;;1.63;0.90;;;20.90;93.80;;;;;;5040759;28;20985;-41
2022/07/15 12:54:52;;;;;;;2.70;1.00;;;20.80;94.10;;;;;;5029580;28;21105;-42
2022/07/15 12:57:31;;;;;;;2.20;1.10;;;20.90;94.60;;;;;;5029165;28;20924;-41
2022/07/15 13:00:01;;;;;;;0.97;0.70;;;21.00;95.20;;;;;;5029786;28;20429;-41
2022/07/15 13:02:27;;;;;;;1.33;0.90;;;21.10;94.70;;;;;;5029616;28;20429;-44